9CA2 weather

Pioneers Memorial Hospital Heliport
Brawley, California, United States

Public forecast

Using degrees Fahrenheit for public forecast. Weather courtesy of forecast.io.

Closest aviation weather report (METAR) to Pioneers Memorial Hospital Heliport

Report is more than 6 hours old.

Closest report is Imperial County Airport, 7.6 nm (14.0 km) S. Retrieved 2020/02/14 13:53 UTC (7 days ago):

KIPL 141353Z AUTO 00000KT 10SM 06/02 A3003 RMK AO2 SLP169 T00610022

Closest aviation forecast (TAF) to Pioneers Memorial Hospital Heliport

Closest forecast is Imperial County Airport, 7.6 nm (14.0 km) S. Retrieved 2020-02-22 00:30 UTC (33 minutes ago):

TAF KIPL 212327Z 2200/2224 VRB04KT P6SM BKN250 FM220400 27007KT P6SM OVC250 FM221600 25012G18KT P6SM SCT100 FM221900 26022G32KT P6SM SCT080